sensor_id;sensor_type;location;lat;lon;timestamp;pressure;altitude;pressure_sealevel;temperature;humidity
36242;BME280;22283;42.748;12.732;2023-02-08T00:04:52;99608.59;;;-3.34;72.89
36242;BME280;22283;42.748;12.732;2023-02-08T00:09:53;99617.16;;;-3.41;74.78
36242;BME280;22283;42.748;12.732;2023-02-08T00:14:55;99616.19;;;-3.57;75.61
36242;BME280;22283;42.748;12.732;2023-02-08T00:19:55;99623.97;;;-3.53;74.04
36242;BME280;22283;42.748;12.732;2023-02-08T00:24:56;99623.94;;;-3.59;73.42
36242;BME280;22283;42.748;12.732;2023-02-08T00:29:57;99627.22;;;-3.78;74.52
36242;BME280;22283;42.748;12.732;2023-02-08T00:34:57;99627.34;;;-3.66;73.00
36242;BME280;22283;42.748;12.732;2023-02-08T00:39:58;99642.03;;;-3.62;71.40
36242;BME280;22283;42.748;12.732;2023-02-08T00:45:02;99640.16;;;-3.77;72.29
36242;BME280;22283;42.748;12.732;2023-02-08T00:50:04;99634.00;;;-3.96;74.09
36242;BME280;22283;42.748;12.732;2023-02-08T00:55:05;99633.09;;;-3.99;73.16
36242;BME280;22283;42.748;12.732;2023-02-08T01:00:07;99641.63;;;-4.08;73.44
36242;BME280;22283;42.748;12.732;2023-02-08T01:05:11;99638.97;;;-4.12;73.74
36242;BME280;22283;42.748;12.732;2023-02-08T01:10:13;99642.50;;;-4.06;72.53
36242;BME280;22283;42.748;12.732;2023-02-08T01:15:14;99634.81;;;-3.98;72.13
36242;BME280;22283;42.748;12.732;2023-02-08T01:20:15;99640.88;;;-3.94;71.36
36242;BME280;22283;42.748;12.732;2023-02-08T01:25:16;99634.19;;;-3.71;69.52
36242;BME280;22283;42.748;12.732;2023-02-08T01:30:16;99630.63;;;-3.87;71.08
36242;BME280;22283;42.748;12.732;2023-02-08T01:35:17;99631.44;;;-3.89;70.99
36242;BME280;22283;42.748;12.732;2023-02-08T01:40:18;99628.72;;;-4.05;72.22
36242;BME280;22283;42.748;12.732;2023-02-08T01:45:30;99624.66;;;-3.77;69.78
36242;BME280;22283;42.748;12.732;2023-02-08T01:50:32;99618.56;;;-3.86;71.26
36242;BME280;22283;42.748;12.732;2023-02-08T01:55:37;99621.13;;;-3.88;70.25
36242;BME280;22283;42.748;12.732;2023-02-08T02:00:39;99617.66;;;-3.90;71.19
36242;BME280;22283;42.748;12.732;2023-02-08T02:05:47;99618.47;;;-3.96;71.09
36242;BME280;22283;42.748;12.732;2023-02-08T02:10:49;99605.38;;;-4.15;72.29
36242;BME280;22283;42.748;12.732;2023-02-08T02:15:51;99604.38;;;-4.28;73.39
36242;BME280;22283;42.748;12.732;2023-02-08T02:36:50;99615.78;;;-4.85;77.19
36242;BME280;22283;42.748;12.732;2023-02-08T02:52:35;99623.09;;;-5.19;79.69
36242;BME280;22283;42.748;12.732;2023-02-08T02:57:41;99622.91;;;-5.31;80.67
36242;BME280;22283;42.748;12.732;2023-02-08T03:02:44;99615.91;;;-5.40;81.91
36242;BME280;22283;42.748;12.732;2023-02-08T03:07:59;99616.72;;;-5.46;82.31
36242;BME280;22283;42.748;12.732;2023-02-08T03:13:25;99623.72;;;-5.35;83.32
36242;BME280;22283;42.748;12.732;2023-02-08T03:24:22;99611.63;;;-5.39;82.26
36242;BME280;22283;42.748;12.732;2023-02-08T03:40:21;99595.03;;;-5.57;83.84
36242;BME280;22283;42.748;12.732;2023-02-08T03:45:38;99599.22;;;-5.65;84.17
36242;BME280;22283;42.748;12.732;2023-02-08T03:50:43;99599.78;;;-5.83;85.13
36242;BME280;22283;42.748;12.732;2023-02-08T03:55:48;99600.72;;;-5.79;86.18
36242;BME280;22283;42.748;12.732;2023-02-08T04:01:04;99598.25;;;-5.73;86.02
36242;BME280;22283;42.748;12.732;2023-02-08T04:06:07;99598.59;;;-5.50;84.19
36242;BME280;22283;42.748;12.732;2023-02-08T04:11:07;99600.94;;;-5.64;84.30
36242;BME280;22283;42.748;12.732;2023-02-08T04:16:11;99600.91;;;-5.67;84.90
36242;BME280;22283;42.748;12.732;2023-02-08T04:21:11;99585.38;;;-5.72;85.34
36242;BME280;22283;42.748;12.732;2023-02-08T04:26:12;99589.53;;;-5.80;85.18
36242;BME280;22283;42.748;12.732;2023-02-08T04:31:13;99594.63;;;-5.84;86.08
36242;BME280;22283;42.748;12.732;2023-02-08T04:36:13;99591.13;;;-5.88;86.22
36242;BME280;22283;42.748;12.732;2023-02-08T04:41:14;99591.06;;;-5.91;86.79
36242;BME280;22283;42.748;12.732;2023-02-08T04:46:15;99587.66;;;-5.93;86.62
36242;BME280;22283;42.748;12.732;2023-02-08T04:51:15;99587.66;;;-5.90;86.61
36242;BME280;22283;42.748;12.732;2023-02-08T04:56:16;99588.41;;;-5.99;87.10
36242;BME280;22283;42.748;12.732;2023-02-08T05:01:17;99594.69;;;-5.80;86.25
36242;BME280;22283;42.748;12.732;2023-02-08T05:06:18;99579.22;;;-5.78;85.89
36242;BME280;22283;42.748;12.732;2023-02-08T05:11:20;99579.91;;;-5.91;86.32
36242;BME280;22283;42.748;12.732;2023-02-08T05:16:21;99596.09;;;-6.02;87.79
36242;BME280;22283;42.748;12.732;2023-02-08T05:21:21;99581.41;;;-6.06;88.08
36242;BME280;22283;42.748;12.732;2023-02-08T05:26:26;99577.34;;;-5.93;88.17
36242;BME280;22283;42.748;12.732;2023-02-08T05:31:26;99552.97;;;-6.13;88.56
36242;BME280;22283;42.748;12.732;2023-02-08T05:36:27;99576.31;;;-6.03;88.88
36242;BME280;22283;42.748;12.732;2023-02-08T05:41:28;99564.22;;;-6.07;88.73
36242;BME280;22283;42.748;12.732;2023-02-08T05:46:28;99572.94;;;-5.99;88.49
36242;BME280;22283;42.748;12.732;2023-02-08T05:51:29;99588.50;;;-5.92;88.62
36242;BME280;22283;42.748;12.732;2023-02-08T05:56:30;99582.47;;;-5.91;86.77
36242;BME280;22283;42.748;12.732;2023-02-08T06:01:31;99583.22;;;-6.02;88.43
36242;BME280;22283;42.748;12.732;2023-02-08T06:06:31;99600.28;;;-6.07;89.07
36242;BME280;22283;42.748;12.732;2023-02-08T06:11:32;99589.25;;;-5.98;88.98
36242;BME280;22283;42.748;12.732;2023-02-08T06:16:33;99585.00;;;-5.98;89.17
36242;BME280;22283;42.748;12.732;2023-02-08T06:21:34;99596.97;;;-6.00;89.55
36242;BME280;22283;42.748;12.732;2023-02-08T06:26:34;99601.75;;;-5.70;89.21
36242;BME280;22283;42.748;12.732;2023-02-08T06:31:35;99593.22;;;-5.64;87.57
36242;BME280;22283;42.748;12.732;2023-02-08T06:36:36;99589.78;;;-5.63;87.98
36242;BME280;22283;42.748;12.732;2023-02-08T06:41:36;99582.91;;;-5.64;87.74
36242;BME280;22283;42.748;12.732;2023-02-08T06:46:37;99591.53;;;-5.62;87.57
36242;BME280;22283;42.748;12.732;2023-02-08T06:51:38;99595.00;;;-5.60;87.61
36242;BME280;22283;42.748;12.732;2023-02-08T06:56:39;99593.44;;;-5.47;87.16
36242;BME280;22283;42.748;12.732;2023-02-08T07:01:39;99600.66;;;-5.26;86.20
36242;BME280;22283;42.748;12.732;2023-02-08T07:06:40;99588.09;;;-4.99;85.58
36242;BME280;22283;42.748;12.732;2023-02-08T07:11:41;99586.69;;;-4.72;82.51
36242;BME280;22283;42.748;12.732;2023-02-08T07:16:42;99596.44;;;-4.47;82.24
36242;BME280;22283;42.748;12.732;2023-02-08T07:21:42;99587.22;;;-4.20;81.74
36242;BME280;22283;42.748;12.732;2023-02-08T07:26:43;99581.75;;;-3.52;74.60
36242;BME280;22283;42.748;12.732;2023-02-08T07:31:45;99584.56;;;-3.06;70.70
36242;BME280;22283;42.748;12.732;2023-02-08T07:36:47;99585.53;;;-2.93;71.60
36242;BME280;22283;42.748;12.732;2023-02-08T07:41:48;99589.84;;;-2.81;73.48
36242;BME280;22283;42.748;12.732;2023-02-08T07:46:49;99582.22;;;-2.44;70.31
36242;BME280;22283;42.748;12.732;2023-02-08T07:51:50;99588.31;;;-2.24;69.64
36242;BME280;22283;42.748;12.732;2023-02-08T07:56:50;99591.78;;;-2.16;71.84
36242;BME280;22283;42.748;12.732;2023-02-08T08:01:51;99591.78;;;-2.04;70.41
36242;BME280;22283;42.748;12.732;2023-02-08T08:06:52;99587.44;;;-1.63;66.46
36242;BME280;22283;42.748;12.732;2023-02-08T08:11:53;99586.53;;;-1.27;64.62
36242;BME280;22283;42.748;12.732;2023-02-08T08:16:53;99584.72;;;-1.01;65.29
36242;BME280;22283;42.748;12.732;2023-02-08T08:21:54;99591.59;;;-0.78;67.50
36242;BME280;22283;42.748;12.732;2023-02-08T08:26:55;99579.34;;;-0.58;66.32
36242;BME280;22283;42.748;12.732;2023-02-08T08:31:55;99578.31;;;-0.26;63.72
36242;BME280;22283;42.748;12.732;2023-02-08T08:37:00;99583.19;;;0.18;59.49
36242;BME280;22283;42.748;12.732;2023-02-08T08:42:02;99579.50;;;0.44;58.43
36242;BME280;22283;42.748;12.732;2023-02-08T08:47:07;99581.88;;;0.67;57.30
36242;BME280;22283;42.748;12.732;2023-02-08T08:52:09;99578.13;;;0.95;56.46
36242;BME280;22283;42.748;12.732;2023-02-08T08:57:10;99577.81;;;1.23;56.03
36242;BME280;22283;42.748;12.732;2023-02-08T09:02:12;99575.84;;;1.40;55.83
36242;BME280;22283;42.748;12.732;2023-02-08T09:07:13;99572.09;;;1.60;55.69
36242;BME280;22283;42.748;12.732;2023-02-08T09:12:14;99566.56;;;1.81;54.43
36242;BME280;22283;42.748;12.732;2023-02-08T09:17:15;99559.47;;;1.89;53.63
36242;BME280;22283;42.748;12.732;2023-02-08T09:22:16;99567.72;;;2.19;53.10
36242;BME280;22283;42.748;12.732;2023-02-08T09:27:16;99570.78;;;2.45;53.48
36242;BME280;22283;42.748;12.732;2023-02-08T09:32:18;99577.50;;;2.59;52.26
36242;BME280;22283;42.748;12.732;2023-02-08T09:37:20;99573.06;;;2.62;52.11
36242;BME280;22283;42.748;12.732;2023-02-08T09:42:29;99572.00;;;2.74;52.29
36242;BME280;22283;42.748;12.732;2023-02-08T09:47:35;99580.31;;;2.93;52.03
36242;BME280;22283;42.748;12.732;2023-02-08T09:52:54;99569.97;;;3.32;50.94
36242;BME280;22283;42.748;12.732;2023-02-08T09:58:00;99577.50;;;3.49;51.13
36242;BME280;22283;42.748;12.732;2023-02-08T10:03:03;99572.41;;;3.80;50.61
36242;BME280;22283;42.748;12.732;2023-02-08T10:08:07;99575.22;;;3.72;51.44
36242;BME280;22283;42.748;12.732;2023-02-08T10:29:26;99567.47;;;4.75;47.17
36242;BME280;22283;42.748;12.732;2023-02-08T10:39:47;99561.53;;;4.68;50.19
36242;BME280;22283;42.748;12.732;2023-02-08T10:45:03;99553.16;;;5.19;49.52
36242;BME280;22283;42.748;12.732;2023-02-08T10:50:32;99545.13;;;5.81;47.59
36242;BME280;22283;42.748;12.732;2023-02-08T10:55:35;99533.78;;;5.53;48.70
36242;BME280;22283;42.748;12.732;2023-02-08T11:00:39;99534.81;;;5.47;48.47
36242;BME280;22283;42.748;12.732;2023-02-08T11:05:40;99528.88;;;5.40;48.23
36242;BME280;22283;42.748;12.732;2023-02-08T11:10:45;99509.03;;;5.32;49.04
36242;BME280;22283;42.748;12.732;2023-02-08T11:15:57;99519.78;;;5.52;48.03
36242;BME280;22283;42.748;12.732;2023-02-08T11:21:01;99520.78;;;5.76;48.86
36242;BME280;22283;42.748;12.732;2023-02-08T11:31:19;99502.34;;;5.50;48.43
36242;BME280;22283;42.748;12.732;2023-02-08T11:36:20;99508.13;;;5.33;48.51
36242;BME280;22283;42.748;12.732;2023-02-08T11:41:20;99491.22;;;5.41;48.62
36242;BME280;22283;42.748;12.732;2023-02-08T11:46:25;99486.44;;;5.56;48.44
36242;BME280;22283;42.748;12.732;2023-02-08T11:51:30;99478.69;;;5.79;47.87
36242;BME280;22283;42.748;12.732;2023-02-08T11:56:33;99458.16;;;5.64;47.31
36242;BME280;22283;42.748;12.732;2023-02-08T12:01:38;99445.72;;;5.97;44.28
36242;BME280;22283;42.748;12.732;2023-02-08T12:07:01;99431.97;;;6.40;43.43
36242;BME280;22283;42.748;12.732;2023-02-08T12:28:21;99400.91;;;6.99;41.41
36242;BME280;22283;42.748;12.732;2023-02-08T12:50:17;99397.19;;;6.81;44.01
36242;BME280;22283;42.748;12.732;2023-02-08T12:55:27;99388.09;;;6.89;43.50
36242;BME280;22283;42.748;12.732;2023-02-08T13:00:31;99385.94;;;6.77;43.71
36242;BME280;22283;42.748;12.732;2023-02-08T13:05:37;99389.00;;;6.88;44.23
36242;BME280;22283;42.748;12.732;2023-02-08T13:10:40;99376.69;;;7.34;44.16
36242;BME280;22283;42.748;12.732;2023-02-08T13:15:48;99374.16;;;7.31;43.26
36242;BME280;22283;42.748;12.732;2023-02-08T13:20:54;99367.28;;;6.83;44.60
36242;BME280;22283;42.748;12.732;2023-02-08T13:26:27;99371.28;;;6.47;45.27
36242;BME280;22283;42.748;12.732;2023-02-08T13:31:36;99377.81;;;6.11;46.87
36242;BME280;22283;42.748;12.732;2023-02-08T13:36:49;99391.56;;;5.93;47.06
36242;BME280;22283;42.748;12.732;2023-02-08T13:41:53;99393.19;;;5.71;48.50
36242;BME280;22283;42.748;12.732;2023-02-08T13:46:55;99391.56;;;5.40;49.65
36242;BME280;22283;42.748;12.732;2023-02-08T13:51:56;99389.94;;;5.36;50.54
36242;BME280;22283;42.748;12.732;2023-02-08T13:56:57;99395.94;;;5.66;49.41
36242;BME280;22283;42.748;12.732;2023-02-08T14:12:35;99387.28;;;5.90;50.19
36242;BME280;22283;42.748;12.732;2023-02-08T14:17:41;99390.19;;;6.08;49.77
36242;BME280;22283;42.748;12.732;2023-02-08T14:22:49;99398.22;;;5.77;49.87
36242;BME280;22283;42.748;12.732;2023-02-08T14:32:55;99415.19;;;5.40;50.51
36242;BME280;22283;42.748;12.732;2023-02-08T14:43:34;99412.59;;;4.81;51.68
36242;BME280;22283;42.748;12.732;2023-02-08T14:48:43;99424.38;;;4.66;51.91
36242;BME280;22283;42.748;12.732;2023-02-08T14:53:56;99411.28;;;4.66;51.99
36242;BME280;22283;42.748;12.732;2023-02-08T14:59:07;99417.44;;;4.65;51.81
36242;BME280;22283;42.748;12.732;2023-02-08T15:04:11;99420.13;;;4.62;51.25
36242;BME280;22283;42.748;12.732;2023-02-08T15:09:22;99420.19;;;4.60;51.28
36242;BME280;22283;42.748;12.732;2023-02-08T15:14:23;99417.78;;;4.53;51.32
36242;BME280;22283;42.748;12.732;2023-02-08T15:19:30;99428.00;;;4.62;50.53
36242;BME280;22283;42.748;12.732;2023-02-08T15:24:31;99419.34;;;4.60;50.65
36242;BME280;22283;42.748;12.732;2023-02-08T15:29:39;99423.66;;;4.61;50.28
36242;BME280;22283;42.748;12.732;2023-02-08T15:34:42;99420.53;;;4.48;50.29
36242;BME280;22283;42.748;12.732;2023-02-08T15:39:45;99425.22;;;4.37;50.06
36242;BME280;22283;42.748;12.732;2023-02-08T15:44:48;99410.81;;;4.21;50.33
36242;BME280;22283;42.748;12.732;2023-02-08T15:49:49;99423.81;;;4.24;49.13
36242;BME280;22283;42.748;12.732;2023-02-08T15:54:52;99422.75;;;3.98;49.57
36242;BME280;22283;42.748;12.732;2023-02-08T15:59:53;99423.78;;;3.91;49.41
36242;BME280;22283;42.748;12.732;2023-02-08T16:04:55;99419.72;;;3.79;49.39
36242;BME280;22283;42.748;12.732;2023-02-08T16:09:56;99414.00;;;3.65;49.37
36242;BME280;22283;42.748;12.732;2023-02-08T16:14:57;99417.84;;;3.50;50.57
36242;BME280;22283;42.748;12.732;2023-02-08T16:19:58;99430.69;;;3.22;50.69
36242;BME280;22283;42.748;12.732;2023-02-08T16:25:21;99435.41;;;3.06;51.46
36242;BME280;22283;42.748;12.732;2023-02-08T16:30:21;99441.97;;;2.84;51.69
36242;BME280;22283;42.748;12.732;2023-02-08T16:35:27;99443.84;;;2.79;51.05
36242;BME280;22283;42.748;12.732;2023-02-08T16:40:42;99446.81;;;2.62;52.10
36242;BME280;22283;42.748;12.732;2023-02-08T16:45:44;99463.56;;;2.50;51.81
36242;BME280;22283;42.748;12.732;2023-02-08T16:50:45;99455.13;;;2.36;52.33
36242;BME280;22283;42.748;12.732;2023-02-08T16:55:45;99457.13;;;2.23;52.65
36242;BME280;22283;42.748;12.732;2023-02-08T17:00:46;99468.38;;;2.25;51.97
36242;BME280;22283;42.748;12.732;2023-02-08T17:05:47;99477.41;;;2.07;52.92
36242;BME280;22283;42.748;12.732;2023-02-08T17:10:48;99473.13;;;2.03;52.17
36242;BME280;22283;42.748;12.732;2023-02-08T17:15:52;99472.28;;;2.03;52.18
36242;BME280;22283;42.748;12.732;2023-02-08T17:20:52;99474.88;;;2.01;51.97
36242;BME280;22283;42.748;12.732;2023-02-08T17:25:58;99485.78;;;1.75;52.34
36242;BME280;22283;42.748;12.732;2023-02-08T17:30:59;99493.53;;;1.78;52.11
36242;BME280;22283;42.748;12.732;2023-02-08T17:36:00;99491.00;;;1.73;52.09
36242;BME280;22283;42.748;12.732;2023-02-08T17:41:19;99483.91;;;1.82;51.84
36242;BME280;22283;42.748;12.732;2023-02-08T17:46:25;99493.69;;;1.69;52.03
36242;BME280;22283;42.748;12.732;2023-02-08T17:51:27;99494.63;;;1.65;51.63
36242;BME280;22283;42.748;12.732;2023-02-08T17:56:28;99483.22;;;1.72;50.88
36242;BME280;22283;42.748;12.732;2023-02-08T18:01:30;99482.72;;;1.47;52.18
36242;BME280;22283;42.748;12.732;2023-02-08T18:06:31;99491.00;;;1.15;52.41
36242;BME280;22283;42.748;12.732;2023-02-08T18:11:32;99498.97;;;1.03;53.21
36242;BME280;22283;42.748;12.732;2023-02-08T18:16:33;99501.63;;;1.00;52.79
36242;BME280;22283;42.748;12.732;2023-02-08T18:21:35;99505.88;;;1.05;53.31
36242;BME280;22283;42.748;12.732;2023-02-08T18:26:36;99505.06;;;1.02;52.83
36242;BME280;22283;42.748;12.732;2023-02-08T18:31:36;99509.38;;;1.03;52.79
36242;BME280;22283;42.748;12.732;2023-02-08T18:36:38;99502.56;;;0.95;53.07
36242;BME280;22283;42.748;12.732;2023-02-08T18:41:39;99510.06;;;1.20;52.45
36242;BME280;22283;42.748;12.732;2023-02-08T18:46:41;99513.06;;;0.86;53.72
36242;BME280;22283;42.748;12.732;2023-02-08T18:51:43;99513.00;;;0.92;53.51
36242;BME280;22283;42.748;12.732;2023-02-08T18:56:44;99530.47;;;0.83;53.45
36242;BME280;22283;42.748;12.732;2023-02-08T19:01:45;99526.22;;;0.74;53.56
36242;BME280;22283;42.748;12.732;2023-02-08T19:06:45;99521.75;;;0.88;53.45
36242;BME280;22283;42.748;12.732;2023-02-08T19:11:46;99524.16;;;1.04;52.87
36242;BME280;22283;42.748;12.732;2023-02-08T19:16:47;99539.91;;;0.93;52.85
36242;BME280;22283;42.748;12.732;2023-02-08T19:21:54;99543.34;;;0.96;53.20
36242;BME280;22283;42.748;12.732;2023-02-08T19:26:54;99534.50;;;1.10;52.00
36242;BME280;22283;42.748;12.732;2023-02-08T19:31:55;99531.06;;;1.08;52.17
36242;BME280;22283;42.748;12.732;2023-02-08T19:36:56;99534.63;;;1.01;52.40
36242;BME280;22283;42.748;12.732;2023-02-08T19:41:57;99522.50;;;0.96;51.06
36242;BME280;22283;42.748;12.732;2023-02-08T19:46:58;99530.31;;;0.95;52.22
36242;BME280;22283;42.748;12.732;2023-02-08T19:51:59;99532.13;;;0.91;52.26
36242;BME280;22283;42.748;12.732;2023-02-08T19:56:59;99536.66;;;0.74;52.63
36242;BME280;22283;42.748;12.732;2023-02-08T20:02:00;99536.59;;;0.80;52.29
36242;BME280;22283;42.748;12.732;2023-02-08T20:07:01;99534.03;;;0.74;52.33
36242;BME280;22283;42.748;12.732;2023-02-08T20:12:02;99525.44;;;0.69;52.16
36242;BME280;22283;42.748;12.732;2023-02-08T20:17:03;99535.00;;;0.67;51.82
36242;BME280;22283;42.748;12.732;2023-02-08T20:22:04;99528.94;;;0.63;51.76
36242;BME280;22283;42.748;12.732;2023-02-08T20:27:05;99534.19;;;0.62;51.33
36242;BME280;22283;42.748;12.732;2023-02-08T20:32:05;99544.63;;;0.59;51.11
36242;BME280;22283;42.748;12.732;2023-02-08T20:37:06;99539.75;;;0.25;52.09
36242;BME280;22283;42.748;12.732;2023-02-08T20:42:07;99532.69;;;0.38;51.43
36242;BME280;22283;42.748;12.732;2023-02-08T20:47:07;99528.25;;;0.47;50.51
36242;BME280;22283;42.748;12.732;2023-02-08T20:52:10;99527.38;;;0.47;50.73
36242;BME280;22283;42.748;12.732;2023-02-08T20:57:12;99523.00;;;0.51;49.94
36242;BME280;22283;42.748;12.732;2023-02-08T21:02:20;99530.91;;;0.44;49.63
36242;BME280;22283;42.748;12.732;2023-02-08T21:07:20;99518.41;;;0.74;49.13
36242;BME280;22283;42.748;12.732;2023-02-08T21:12:21;99520.41;;;0.51;49.49
36242;BME280;22283;42.748;12.732;2023-02-08T21:17:22;99525.06;;;0.18;50.44
36242;BME280;22283;42.748;12.732;2023-02-08T21:22:22;99529.53;;;0.05;51.09
36242;BME280;22283;42.748;12.732;2023-02-08T21:27:23;99530.47;;;-0.04;50.82
36242;BME280;22283;42.748;12.732;2023-02-08T21:32:24;99532.28;;;-0.15;53.34
36242;BME280;22283;42.748;12.732;2023-02-08T21:37:24;99535.19;;;-0.59;54.84
36242;BME280;22283;42.748;12.732;2023-02-08T21:42:25;99539.63;;;-0.87;56.48
36242;BME280;22283;42.748;12.732;2023-02-08T21:47:25;99532.84;;;-1.16;57.21
36242;BME280;22283;42.748;12.732;2023-02-08T21:52:26;99543.25;;;-1.25;57.71
36242;BME280;22283;42.748;12.732;2023-02-08T21:57:46;99544.97;;;-1.27;58.68
36242;BME280;22283;42.748;12.732;2023-02-08T22:02:46;99551.97;;;-1.41;58.80
36242;BME280;22283;42.748;12.732;2023-02-08T22:07:52;99536.28;;;-1.11;57.66
36242;BME280;22283;42.748;12.732;2023-02-08T22:12:54;99543.25;;;-1.31;57.98
36242;BME280;22283;42.748;12.732;2023-02-08T22:17:57;99536.38;;;-1.41;58.77
36242;BME280;22283;42.748;12.732;2023-02-08T22:22:58;99541.59;;;-1.54;58.97
36242;BME280;22283;42.748;12.732;2023-02-08T22:27:59;99550.25;;;-1.64;60.50
36242;BME280;22283;42.748;12.732;2023-02-08T22:33:00;99536.44;;;-1.87;61.93
36242;BME280;22283;42.748;12.732;2023-02-08T22:38:01;99534.72;;;-1.93;61.95
36242;BME280;22283;42.748;12.732;2023-02-08T22:43:02;99542.50;;;-1.93;62.43
36242;BME280;22283;42.748;12.732;2023-02-08T22:48:03;99543.34;;;-1.99;63.44
36242;BME280;22283;42.748;12.732;2023-02-08T22:53:03;99543.38;;;-2.17;64.75
36242;BME280;22283;42.748;12.732;2023-02-08T22:58:04;99543.34;;;-2.23;64.96
36242;BME280;22283;42.748;12.732;2023-02-08T23:03:05;99547.69;;;-1.91;65.03
36242;BME280;22283;42.748;12.732;2023-02-08T23:08:05;99550.28;;;-1.85;64.65
36242;BME280;22283;42.748;12.732;2023-02-08T23:13:06;99531.25;;;-1.75;64.10
36242;BME280;22283;42.748;12.732;2023-02-08T23:18:07;99531.25;;;-1.75;64.38
36242;BME280;22283;42.748;12.732;2023-02-08T23:23:08;99536.44;;;-1.66;64.62
36242;BME280;22283;42.748;12.732;2023-02-08T23:28:10;99519.13;;;-1.82;65.30
36242;BME280;22283;42.748;12.732;2023-02-08T23:33:11;99519.13;;;-1.82;64.41
36242;BME280;22283;42.748;12.732;2023-02-08T23:38:12;99506.16;;;-1.87;65.63
36242;BME280;22283;42.748;12.732;2023-02-08T23:43:12;99509.66;;;-2.05;66.37
36242;BME280;22283;42.748;12.732;2023-02-08T23:48:13;99509.66;;;-2.17;69.02
36242;BME280;22283;42.748;12.732;2023-02-08T23:53:13;99503.59;;;-2.19;69.40
36242;BME280;22283;42.748;12.732;2023-02-08T23:58:14;99499.28;;;-2.12;69.13
